Time,TemperatureF,DewpointF,PressureIn,WindDirection,WindDirectionDegrees,WindSpeedMPH,WindSpeedGustMPH,Humidity,HourlyPrecipIn,Conditions,Clouds,dailyrainin,SoftwareType,DateUTC
2013-01-28 00:01:00,33.8,33.8,29.84,ESE,107,4.9,5.4,100,0.00,,---,0.00,VWS V12.08,2013-01-28 06:01:00,
2013-01-28 00:16:00,33.8,33.8,29.84,ESE,107,4.9,5.4,100,0.00,,---,0.00,VWS V12.08,2013-01-28 06:16:00,
2013-01-28 00:31:00,33.8,33.8,29.81,ESE,107,2.7,5.4,100,0.00,,---,0.00,VWS V12.08,2013-01-28 06:31:00,
2013-01-28 00:46:00,33.8,33.8,29.81,ESE,107,0.0,3.6,100,0.00,,---,0.00,VWS V12.08,2013-01-28 06:46:00,
2013-01-28 01:01:00,33.8,33.8,29.81,ESE,107,0.0,0.0,100,0.00,,---,0.00,VWS V12.08,2013-01-28 07:01:00,
2013-01-28 01:16:00,33.8,33.8,29.81,ESE,107,0.0,0.0,100,0.00,,---,0.00,VWS V12.08,2013-01-28 07:16:00,
2013-01-28 01:31:00,34.0,34.0,29.81,ESE,107,0.0,0.0,100,0.00,,---,0.00,VWS V12.08,2013-01-28 07:31:00,
2013-01-28 01:47:00,34.2,34.2,29.81,ESE,107,0.0,0.0,100,0.00,,---,0.00,VWS V12.08,2013-01-28 07:47:00,
2013-01-28 02:01:00,34.0,34.0,29.81,ESE,107,0.0,0.0,100,0.00,,---,0.00,VWS V12.08,2013-01-28 08:01:00,
2013-01-28 02:16:00,34.0,34.0,29.78,ESE,107,0.0,0.0,100,0.00,,---,0.00,VWS V12.08,2013-01-28 08:16:00,
2013-01-28 02:31:00,34.0,34.0,29.78,ESE,107,0.0,0.0,100,0.00,,---,0.00,VWS V12.08,2013-01-28 08:31:00,
2013-01-28 02:47:00,34.0,34.0,29.78,ESE,107,0.0,0.0,100,0.00,,---,0.00,VWS V12.08,2013-01-28 08:47:00,
2013-01-28 03:02:00,34.0,34.0,29.78,ESE,107,0.0,0.0,100,0.00,,---,0.00,VWS V12.08,2013-01-28 09:02:00,
2013-01-28 03:17:00,34.2,34.2,29.78,ESE,107,0.0,0.0,100,0.00,,---,0.00,VWS V12.08,2013-01-28 09:17:00,
2013-01-28 03:32:00,34.2,34.2,29.78,ESE,107,0.0,0.0,100,0.00,,---,0.00,VWS V12.08,2013-01-28 09:32:00,
2013-01-28 03:47:00,34.2,34.2,29.78,ESE,107,0.0,0.0,100,0.00,,---,0.00,VWS V12.08,2013-01-28 09:47:00,
2013-01-28 04:02:00,34.2,34.2,29.78,ESE,107,0.0,0.0,100,0.00,,---,0.00,VWS V12.08,2013-01-28 10:02:00,
2013-01-28 04:17:00,34.0,34.0,29.78,ESE,107,0.0,0.0,100,0.00,,---,0.00,VWS V12.08,2013-01-28 10:17:00,
2013-01-28 04:32:00,34.2,34.2,29.78,ESE,107,0.0,0.0,100,0.00,,---,0.00,VWS V12.08,2013-01-28 10:32:00,
2013-01-28 04:47:00,34.2,34.2,29.78,ESE,107,0.0,0.0,100,0.00,,---,0.00,VWS V12.08,2013-01-28 10:47:00,
2013-01-28 05:02:00,34.2,34.2,29.78,ESE,107,0.0,0.0,100,0.00,,---,0.00,VWS V12.08,2013-01-28 11:02:00,
2013-01-28 05:17:00,34.2,34.2,29.78,ESE,107,0.0,0.0,100,0.00,,---,0.00,VWS V12.08,2013-01-28 11:17:00,
2013-01-28 05:32:00,34.3,34.3,29.78,ESE,107,0.0,0.0,100,0.00,,---,0.00,VWS V12.08,2013-01-28 11:32:00,
2013-01-28 05:47:00,34.3,34.3,29.78,ESE,107,0.0,0.0,100,0.00,,---,0.00,VWS V12.08,2013-01-28 11:47:00,
2013-01-28 06:02:00,34.3,34.3,29.78,ESE,107,0.0,0.0,100,0.00,,---,0.00,VWS V12.08,2013-01-28 12:02:00,
2013-01-28 06:17:00,34.5,34.5,29.81,ESE,107,0.0,0.0,100,0.00,,---,0.00,VWS V12.08,2013-01-28 12:17:00,
2013-01-28 06:32:00,35.1,35.1,29.81,ESE,107,0.0,0.0,100,0.00,,---,0.00,VWS V12.08,2013-01-28 12:32:00,
2013-01-28 06:47:00,35.2,35.2,29.81,ESE,107,0.0,0.0,100,0.00,,---,0.00,VWS V12.08,2013-01-28 12:47:00,
2013-01-28 07:02:00,35.4,35.4,29.84,ESE,107,0.0,0.0,100,0.00,,---,0.00,VWS V12.08,2013-01-28 13:02:00,
2013-01-28 07:17:00,35.8,35.8,29.84,ESE,107,0.0,0.0,100,0.00,,---,0.00,VWS V12.08,2013-01-28 13:17:00,
2013-01-28 07:32:00,35.8,35.8,29.84,West,276,4.9,6.3,100,0.00,,---,0.00,VWS V12.08,2013-01-28 13:32:00,
2013-01-28 07:46:00,35.8,35.8,29.84,WNW,286,3.1,8.3,100,0.00,,---,0.00,VWS V12.08,2013-01-28 13:46:00,
2013-01-28 08:01:00,36.0,36.0,29.87,WSW,254,6.3,7.6,100,0.00,,---,0.00,VWS V12.08,2013-01-28 14:01:00,
2013-01-28 08:16:00,36.0,36.0,29.87,WNW,297,4.5,7.6,100,0.00,,---,0.00,VWS V12.08,2013-01-28 14:16:00,
2013-01-28 08:31:00,36.1,36.1,29.87,NW,304,8.3,8.7,100,0.00,,---,0.00,VWS V12.08,2013-01-28 14:31:00,
2013-01-28 08:46:00,36.3,36.3,29.87,WNW,292,5.4,10.1,100,0.00,,---,0.00,VWS V12.08,2013-01-28 14:46:00,
2013-01-28 09:01:00,36.3,36.3,29.87,WNW,290,6.3,11.0,100,0.00,,---,0.00,VWS V12.08,2013-01-28 15:01:00,
2013-01-28 09:16:00,36.3,36.3,29.87,WNW,284,3.1,10.1,100,0.00,,---,0.00,VWS V12.08,2013-01-28 15:16:00,
2013-01-28 09:31:00,36.5,36.5,29.90,WNW,288,5.4,10.1,100,0.00,,---,0.00,VWS V12.08,2013-01-28 15:31:00,
2013-01-28 09:46:00,36.7,35.1,29.90,West,259,5.4,10.1,94,0.00,,---,0.00,VWS V12.08,2013-01-28 15:46:00,
2013-01-28 10:01:00,36.9,32.2,29.90,WNW,293,5.8,8.7,83,0.00,,---,0.00,VWS V12.08,2013-01-28 16:01:00,
2013-01-28 10:16:00,37.6,26.9,29.90,WNW,293,4.0,8.3,65,0.00,,---,0.00,VWS V12.08,2013-01-28 16:16:00,
2013-01-28 10:31:00,38.7,23.9,29.90,WNW,292,5.4,9.6,55,0.00,,---,0.00,VWS V12.08,2013-01-28 16:31:00,
2013-01-28 10:46:00,40.3,23.6,29.90,NNW,327,5.8,11.0,51,0.00,,---,0.00,VWS V12.08,2013-01-28 16:46:00,
2013-01-28 11:01:00,42.6,21.1,29.90,NNW,339,6.3,8.1,42,0.00,,---,0.00,VWS V12.08,2013-01-28 17:01:00,
2013-01-28 11:16:00,41.4,21.1,29.90,NW,313,5.8,11.0,44,0.00,,---,0.00,VWS V12.08,2013-01-28 17:16:00,
2013-01-28 11:31:00,41.7,21.4,29.90,North,353,3.6,10.5,44,0.00,,---,0.00,VWS V12.08,2013-01-28 17:31:00,
2013-01-28 11:46:00,40.3,20.6,29.90,North,353,4.9,13.2,45,0.00,,---,0.00,VWS V12.08,2013-01-28 17:46:00,
2013-01-28 13:46:00,39.0,20.5,29.90,WNW,300,3.1,4.9,47,0.00,,---,0.00,VWS V12.08,2013-01-28 19:46:00,
2013-01-28 14:01:00,38.7,19.2,29.90,WNW,295,5.4,5.4,45,0.00,,---,0.00,VWS V12.08,2013-01-28 20:01:00,
2013-01-28 14:16:00,39.0,19.5,29.90,SW,222,3.6,5.8,45,0.00,,---,0.00,VWS V12.08,2013-01-28 20:16:00,
2013-01-28 14:31:00,38.5,19.5,29.90,SW,231,4.5,5.4,46,0.00,,---,0.00,VWS V12.08,2013-01-28 20:31:00,
2013-01-28 14:46:00,37.8,19.9,29.90,SW,218,3.6,4.9,48,0.00,,---,0.00,VWS V12.08,2013-01-28 20:46:00,
2013-01-28 15:01:00,37.6,19.7,29.93,SW,223,4.0,6.3,48,0.00,,---,0.00,VWS V12.08,2013-01-28 21:01:00,
2013-01-28 15:16:00,38.3,20.4,29.93,SW,229,6.3,7.6,48,0.00,,---,0.00,VWS V12.08,2013-01-28 21:16:00,
2013-01-28 15:31:00,38.5,20.0,29.93,SW,230,5.8,6.3,47,0.00,,---,0.00,VWS V12.08,2013-01-28 21:31:00,
2013-01-28 15:46:00,38.7,19.2,29.93,SW,226,2.7,6.7,45,0.00,,---,0.00,VWS V12.08,2013-01-28 21:46:00,
2013-01-28 16:01:00,39.9,19.2,29.93,SW,226,0.0,3.1,43,0.00,,---,0.00,VWS V12.08,2013-01-28 22:01:00,
2013-01-28 16:16:00,38.7,17.6,29.93,SW,226,0.0,3.1,42,0.00,,---,0.00,VWS V12.08,2013-01-28 22:16:00,
2013-01-28 16:31:00,36.7,17.9,29.93,SW,226,0.0,0.0,46,0.00,,---,0.00,VWS V12.08,2013-01-28 22:31:00,
2013-01-28 16:46:00,36.0,17.7,29.93,SW,226,3.6,4.0,47,0.00,,---,0.00,VWS V12.08,2013-01-28 22:46:00,
2013-01-28 17:01:00,35.4,19.1,29.90,NNE,24,3.1,4.9,51,0.00,,---,0.00,VWS V12.08,2013-01-28 23:01:00,
2013-01-28 17:16:00,35.1,20.1,29.93,NNE,22,3.6,5.4,54,0.00,,---,0.00,VWS V12.08,2013-01-28 23:16:00,
2013-01-28 17:31:00,34.3,19.9,29.93,NNE,31,3.6,4.0,55,0.00,,---,0.00,VWS V12.08,2013-01-28 23:31:00,
2013-01-28 17:46:00,33.8,20.2,29.90,NNE,19,3.1,4.0,57,0.00,,---,0.00,VWS V12.08,2013-01-28 23:46:00,
2013-01-28 18:01:00,33.6,21.6,29.90,NNE,29,6.3,7.2,61,0.00,,---,0.00,VWS V12.08,2013-01-29 00:01:00,
2013-01-28 18:17:00,33.1,21.9,29.90,NE,45,4.0,7.6,63,0.00,,---,0.00,VWS V12.08,2013-01-29 00:17:00,
2013-01-28 18:32:00,33.1,23.7,29.90,SE,133,4.0,4.9,68,0.00,,---,0.00,VWS V12.08,2013-01-29 00:32:00,
2013-01-28 18:47:00,32.5,23.9,29.93,SE,143,2.7,4.0,70,0.00,,---,0.00,VWS V12.08,2013-01-29 00:47:00,
2013-01-28 19:02:00,32.7,26.0,29.90,ENE,61,3.1,4.0,76,0.00,,---,0.00,VWS V12.08,2013-01-29 01:02:00,
2013-01-28 19:17:00,32.5,25.8,29.90,ENE,69,3.1,4.9,76,0.00,,---,0.00,VWS V12.08,2013-01-29 01:17:00,
2013-01-28 19:32:00,32.7,27.5,29.90,East,87,2.7,3.6,81,0.00,,---,0.00,VWS V12.08,2013-01-29 01:32:00,
2013-01-28 19:47:00,32.7,26.3,29.93,SSE,155,5.4,6.7,77,0.00,,---,0.00,VWS V12.08,2013-01-29 01:47:00,
2013-01-28 20:02:00,32.4,26.9,29.90,SE,131,2.7,6.3,80,0.00,,---,0.00,VWS V12.08,2013-01-29 02:02:00,
2013-01-28 20:17:00,32.5,27.7,29.90,NE,51,4.0,5.4,82,0.00,,---,0.00,VWS V12.08,2013-01-29 02:17:00,
2013-01-28 20:32:00,32.5,28.0,29.90,ESE,122,4.9,6.3,83,0.00,,---,0.00,VWS V12.08,2013-01-29 02:32:00,
2013-01-28 20:47:00,33.1,27.3,29.90,ENE,72,4.0,6.7,79,0.00,,---,0.00,VWS V12.08,2013-01-29 02:47:00,
2013-01-28 21:02:00,33.8,28.0,29.90,East,79,5.4,8.7,79,0.00,,---,0.00,VWS V12.08,2013-01-29 03:02:00,
2013-01-28 21:17:00,34.0,27.9,29.87,ESE,122,6.3,6.3,78,0.00,,---,0.00,VWS V12.08,2013-01-29 03:17:00,
2013-01-28 21:32:00,34.0,27.9,29.87,SE,144,8.1,8.7,78,0.00,,---,0.00,VWS V12.08,2013-01-29 03:32:00,
2013-01-28 21:46:00,34.3,29.1,29.87,SE,142,7.6,11.4,81,0.00,,---,0.00,VWS V12.08,2013-01-29 03:46:00,
2013-01-28 22:01:00,34.5,29.3,29.84,SE,128,5.8,8.7,81,0.00,,---,0.00,VWS V12.08,2013-01-29 04:01:00,
2013-01-28 22:16:00,35.1,29.8,29.84,ESE,120,6.3,11.0,81,0.00,,---,0.00,VWS V12.08,2013-01-29 04:16:00,
2013-01-28 22:31:00,35.4,29.2,29.84,SE,133,5.8,11.0,78,0.00,,---,0.00,VWS V12.08,2013-01-29 04:31:00,
2013-01-28 22:46:00,35.8,28.6,29.81,SE,142,4.0,12.3,75,0.00,,---,0.00,VWS V12.08,2013-01-29 04:46:00,
2013-01-28 23:01:00,35.8,29.0,29.78,SE,137,7.2,13.2,76,0.00,,---,0.00,VWS V12.08,2013-01-29 05:01:00,
2013-01-28 23:16:00,36.1,28.7,29.78,SE,144,8.1,9.6,74,0.00,,---,0.00,VWS V12.08,2013-01-29 05:16:00,
2013-01-28 23:31:00,36.3,27.8,29.78,SE,128,5.4,12.8,71,0.00,,---,0.00,VWS V12.08,2013-01-29 05:31:00,
2013-01-28 23:46:00,36.3,29.2,29.78,SSE,150,8.3,13.2,75,0.00,,---,0.00,VWS V12.08,2013-01-29 05:46:00,